DAL2429 KALB-KATL
Flight info
| Callsign | DAL2429 |
|---|---|
| Flight time | N/A |
| Altitude | 32000 |
| Route | ACOVE DBABE Q448 PTW J48 MOL FLASK OZZZI2 |
| Aircraft | A320/M-VGDW/C |
Departure
| Time | 2026-04-24 12:30 |
|---|---|
| Airport | Albany International Airport (KALB) |
Arrival
| Time | N/A |
|---|---|
| Airport | Hartsfield Jackson Atlanta International Airport (KATL) |
| Time | Latitude | Longitude | Altitude | Speed | Heading |
|---|---|---|---|---|---|
| 2026-04-24 12:06 | 42.74697 | -73.80884 | 272 ft | 0 kts | 163° |
| 2026-04-24 12:14 | 42.74698 | -73.80884 | 272 ft | 0 kts | 163° |
| 2026-04-24 12:18 | 42.74699 | -73.80885 | 272 ft | 0 kts | 163° |
| 2026-04-24 12:18 | 42.74701 | -73.80885 | 272 ft | 1 kts | 162° |
| 2026-04-24 12:18 | 42.74702 | -73.80885 | 272 ft | 0 kts | 161° |
| 2026-04-24 12:21 | 42.74711 | -73.80890 | 272 ft | 2 kts | 162° |
| 2026-04-24 12:21 | 42.74725 | -73.80895 | 271 ft | 2 kts | 163° |
| 2026-04-24 12:21 | 42.74740 | -73.80901 | 271 ft | 2 kts | 163° |
| 2026-04-24 12:22 | 42.74754 | -73.80907 | 271 ft | 2 kts | 163° |
| 2026-04-24 12:22 | 42.74769 | -73.80913 | 271 ft | 2 kts | 163° |
| 2026-04-24 12:22 | 42.74783 | -73.80919 | 271 ft | 2 kts | 163° |
| 2026-04-24 12:22 | 42.74792 | -73.80924 | 271 ft | 1 kts | 163° |
| 2026-04-24 12:23 | 42.74805 | -73.80933 | 270 ft | 2 kts | 125° |
| 2026-04-24 12:23 | 42.74810 | -73.80950 | 270 ft | 0 kts | 94° |
| 2026-04-24 12:23 | 42.74810 | -73.80959 | 270 ft | 1 kts | 87° |
| 2026-04-24 12:23 | 42.74810 | -73.80962 | 270 ft | 0 kts | 89° |
| 2026-04-24 12:25 | 42.74810 | -73.80930 | 270 ft | 8 kts | 89° |
| 2026-04-24 12:25 | 42.74813 | -73.80817 | 273 ft | 14 kts | 88° |
| 2026-04-24 12:25 | 42.74817 | -73.80688 | 275 ft | 13 kts | 86° |
| 2026-04-24 12:25 | 42.74761 | -73.80620 | 276 ft | 12 kts | 176° |
| 2026-04-24 12:26 | 42.74671 | -73.80615 | 276 ft | 13 kts | 178° |
| 2026-04-24 12:26 | 42.74578 | -73.80612 | 277 ft | 13 kts | 178° |
| 2026-04-24 12:26 | 42.74483 | -73.80608 | 277 ft | 14 kts | 178° |
| 2026-04-24 12:26 | 42.74381 | -73.80603 | 277 ft | 14 kts | 178° |
| 2026-04-24 12:27 | 42.74278 | -73.80598 | 278 ft | 14 kts | 178° |
| 2026-04-24 12:27 | 42.74178 | -73.80595 | 280 ft | 13 kts | 178° |
| 2026-04-24 12:27 | 42.74080 | -73.80591 | 281 ft | 14 kts | 177° |
| 2026-04-24 12:27 | 42.73977 | -73.80586 | 281 ft | 15 kts | 178° |
| 2026-04-24 12:28 | 42.73871 | -73.80581 | 281 ft | 15 kts | 178° |
| 2026-04-24 12:28 | 42.73763 | -73.80576 | 282 ft | 15 kts | 167° |
| 2026-04-24 12:28 | 42.73731 | -73.80527 | 284 ft | 5 kts | 103° |
| 2026-04-24 12:28 | 42.73734 | -73.80456 | 285 ft | 11 kts | 59° |
| 2026-04-24 12:29 | 42.73797 | -73.80430 | 284 ft | 0 kts | 358° |
| 2026-04-24 12:29 | 42.73886 | -73.80434 | 284 ft | 46 kts | 358° |
| 2026-04-24 12:29 | 42.74484 | -73.80460 | 280 ft | 123 kts | 358° |
| 2026-04-24 12:29 | 42.75516 | -73.80505 | 560 ft | 160 kts | 359° |
| 2026-04-24 12:30 | 42.76671 | -73.80559 | 1215 ft | 176 kts | 359° |
| 2026-04-24 12:30 | 42.77925 | -73.80613 | 1926 ft | 187 kts | 359° |
| 2026-04-24 12:30 | 42.79287 | -73.80664 | 2393 ft | 209 kts | 358° |
| 2026-04-24 12:30 | 42.80753 | -73.81079 | 2890 ft | 230 kts | 332° |
| 2026-04-24 12:31 | 42.81965 | -73.82601 | 3516 ft | 248 kts | 302° |
| 2026-04-24 12:31 | 42.82444 | -73.84864 | 4430 ft | 256 kts | 275° |
| 2026-04-24 12:31 | 42.82092 | -73.87234 | 5318 ft | 266 kts | 249° |
| 2026-04-24 12:31 | 42.80896 | -73.89159 | 6133 ft | 282 kts | 219° |
| 2026-04-24 12:32 | 42.79024 | -73.90132 | 6895 ft | 297 kts | 195° |
| 2026-04-24 12:32 | 42.76969 | -73.90601 | 7604 ft | 304 kts | 194° |
| 2026-04-24 12:32 | 42.74857 | -73.91059 | 8292 ft | 311 kts | 195° |
| 2026-04-24 12:32 | 42.72727 | -73.91531 | 8995 ft | 316 kts | 196° |
| 2026-04-24 12:33 | 42.70535 | -73.92030 | 9687 ft | 321 kts | 197° |
| 2026-04-24 12:33 | 42.68343 | -73.92544 | 10360 ft | 325 kts | 198° |
| 2026-04-24 12:33 | 42.66099 | -73.93077 | 11007 ft | 333 kts | 198° |
| 2026-04-24 12:33 | 42.63768 | -73.93643 | 11540 ft | 352 kts | 198° |
| 2026-04-24 12:34 | 42.61270 | -73.94253 | 12050 ft | 371 kts | 198° |
| 2026-04-24 12:34 | 42.58688 | -73.94875 | 12504 ft | 391 kts | 198° |
| 2026-04-24 12:34 | 42.55938 | -73.95532 | 12887 ft | 410 kts | 198° |
| 2026-04-24 12:34 | 42.53090 | -73.96214 | 13254 ft | 428 kts | 198° |
| 2026-04-24 12:35 | 42.50061 | -73.96932 | 13569 ft | 447 kts | 198° |
| 2026-04-24 12:35 | 42.46963 | -73.97662 | 13894 ft | 464 kts | 198° |
| 2026-04-24 12:35 | 42.43762 | -73.98411 | 14483 ft | 471 kts | 197° |
| 2026-04-24 12:35 | 42.40516 | -73.99168 | 15199 ft | 475 kts | 197° |
| 2026-04-24 12:36 | 42.37291 | -73.99923 | 15926 ft | 477 kts | 197° |
| 2026-04-24 12:36 | 42.33962 | -74.00706 | 16566 ft | 482 kts | 197° |
| 2026-04-24 12:36 | 42.30665 | -74.01483 | 17189 ft | 487 kts | 197° |
| 2026-04-24 12:36 | 42.27338 | -74.02270 | 17785 ft | 491 kts | 197° |
| 2026-04-24 12:37 | 42.23911 | -74.02975 | 18440 ft | 497 kts | 194° |
| 2026-04-24 12:37 | 42.20483 | -74.03400 | 19072 ft | 504 kts | 189° |
| 2026-04-24 12:37 | 42.16972 | -74.03629 | 19665 ft | 507 kts | 189° |
| 2026-04-24 12:37 | 42.13418 | -74.03827 | 20252 ft | 511 kts | 188° |
| 2026-04-24 12:38 | 42.09889 | -74.04021 | 20760 ft | 514 kts | 188° |
| 2026-04-24 12:38 | 42.06332 | -74.04219 | 21297 ft | 517 kts | 189° |
| 2026-04-24 12:38 | 42.02705 | -74.04427 | 21842 ft | 519 kts | 189° |
| 2026-04-24 12:39 | 41.91840 | -74.05063 | 23171 ft | 527 kts | 189° |
| 2026-04-24 12:39 | 41.88170 | -74.05280 | 23535 ft | 529 kts | 189° |
| 2026-04-24 12:39 | 41.84498 | -74.05500 | 23915 ft | 530 kts | 188° |
| 2026-04-24 12:40 | 41.80784 | -74.05720 | 24224 ft | 532 kts | 188° |
| 2026-04-24 12:40 | 41.77086 | -74.05939 | 24474 ft | 534 kts | 188° |
| 2026-04-24 12:40 | 41.73384 | -74.06158 | 24688 ft | 537 kts | 188° |
| 2026-04-24 12:40 | 41.69635 | -74.06376 | 24923 ft | 538 kts | 188° |
| 2026-04-24 12:41 | 41.65899 | -74.06593 | 25270 ft | 537 kts | 188° |
| 2026-04-24 12:41 | 41.62200 | -74.06806 | 25811 ft | 531 kts | 189° |
| 2026-04-24 12:41 | 41.58555 | -74.07018 | 26210 ft | 529 kts | 188° |
| 2026-04-24 12:41 | 41.54856 | -74.07235 | 26442 ft | 530 kts | 188° |
| 2026-04-24 12:42 | 41.51182 | -74.07450 | 26696 ft | 529 kts | 189° |
| 2026-04-24 12:42 | 41.47524 | -74.07664 | 27018 ft | 527 kts | 188° |
| 2026-04-24 12:42 | 41.43854 | -74.07880 | 27288 ft | 526 kts | 188° |
| 2026-04-24 12:42 | 41.40203 | -74.08093 | 27516 ft | 526 kts | 188° |
| 2026-04-24 12:43 | 41.36593 | -74.08303 | 27806 ft | 525 kts | 188° |
| 2026-04-24 12:43 | 41.32946 | -74.08516 | 28092 ft | 524 kts | 188° |
| 2026-04-24 12:43 | 41.29293 | -74.08727 | 28363 ft | 523 kts | 188° |
| 2026-04-24 12:43 | 41.25717 | -74.08935 | 28649 ft | 521 kts | 188° |
| 2026-04-24 12:44 | 41.22064 | -74.09146 | 28947 ft | 520 kts | 188° |
| 2026-04-24 12:44 | 41.18522 | -74.09566 | 29214 ft | 511 kts | 198° |
| 2026-04-24 12:44 | 41.15165 | -74.10966 | 29461 ft | 494 kts | 213° |
| 2026-04-24 12:44 | 41.12295 | -74.13236 | 29715 ft | 477 kts | 226° |
| 2026-04-24 12:45 | 41.09931 | -74.16194 | 29906 ft | 462 kts | 238° |
| 2026-04-24 12:45 | 41.07922 | -74.19458 | 30156 ft | 459 kts | 240° |
| 2026-04-24 12:45 | 41.05938 | -74.22752 | 30385 ft | 459 kts | 240° |
| 2026-04-24 12:45 | 41.03940 | -74.26054 | 30603 ft | 460 kts | 240° |
| 2026-04-24 12:46 | 41.01951 | -74.29317 | 30801 ft | 460 kts | 239° |
| 2026-04-24 12:46 | 40.99937 | -74.32597 | 30998 ft | 461 kts | 239° |
| 2026-04-24 12:46 | 40.97904 | -74.35894 | 31263 ft | 460 kts | 239° |
| 2026-04-24 12:46 | 40.95881 | -74.39159 | 31503 ft | 459 kts | 239° |
| 2026-04-24 12:47 | 40.93874 | -74.42391 | 31776 ft | 458 kts | 239° |
| 2026-04-24 12:47 | 40.89819 | -74.48917 | 31893 ft | 464 kts | 239° |
| 2026-04-24 12:47 | 40.87777 | -74.52190 | 32318 ft | 458 kts | 239° |
| 2026-04-24 12:48 | 40.85752 | -74.55421 | 32839 ft | 450 kts | 239° |
| 2026-04-24 12:48 | 40.83800 | -74.58535 | 33358 ft | 442 kts | 239° |
| 2026-04-24 12:48 | 40.81851 | -74.61647 | 33791 ft | 437 kts | 239° |
| 2026-04-24 12:49 | 40.77963 | -74.67877 | 33888 ft | 445 kts | 239° |
| 2026-04-24 12:49 | 40.74008 | -74.74197 | 33890 ft | 454 kts | 238° |
| 2026-04-24 12:50 | 40.69968 | -74.80616 | 33886 ft | 456 kts | 238° |
| 2026-04-24 12:50 | 40.65932 | -74.87016 | 33883 ft | 456 kts | 238° |
| 2026-04-24 12:51 | 40.61892 | -74.93411 | 33883 ft | 455 kts | 238° |
| 2026-04-24 12:51 | 40.57847 | -74.99801 | 33885 ft | 456 kts | 238° |
| 2026-04-24 12:52 | 40.53804 | -75.06197 | 33887 ft | 457 kts | 238° |
| 2026-04-24 12:52 | 40.49757 | -75.12626 | 33892 ft | 457 kts | 238° |
| 2026-04-24 12:53 | 40.45736 | -75.19006 | 33891 ft | 456 kts | 238° |
| 2026-04-24 12:53 | 40.41673 | -75.25430 | 33892 ft | 456 kts | 238° |
| 2026-04-24 12:54 | 40.37645 | -75.31789 | 33893 ft | 456 kts | 238° |
| 2026-04-24 12:54 | 40.33588 | -75.38178 | 33893 ft | 456 kts | 238° |
| 2026-04-24 12:55 | 40.29538 | -75.44544 | 33888 ft | 456 kts | 237° |
| 2026-04-24 12:55 | 40.25501 | -75.50875 | 33892 ft | 457 kts | 237° |
| 2026-04-24 12:56 | 40.21584 | -75.57365 | 33885 ft | 453 kts | 242° |
| 2026-04-24 12:56 | 40.18108 | -75.64188 | 33890 ft | 450 kts | 244° |
| 2026-04-24 12:57 | 40.14699 | -75.70984 | 33883 ft | 451 kts | 243° |
| 2026-04-24 12:57 | 40.11249 | -75.77834 | 33876 ft | 451 kts | 243° |
| 2026-04-24 12:58 | 40.07817 | -75.84629 | 33875 ft | 451 kts | 243° |
| 2026-04-24 12:58 | 40.04361 | -75.91452 | 33873 ft | 451 kts | 243° |
| 2026-04-24 12:59 | 40.00900 | -75.98267 | 33870 ft | 450 kts | 243° |
| 2026-04-24 12:59 | 39.97440 | -76.05069 | 33875 ft | 450 kts | 243° |
| 2026-04-24 13:00 | 39.93990 | -76.11839 | 33869 ft | 452 kts | 243° |
| 2026-04-24 13:00 | 39.90513 | -76.18645 | 33871 ft | 451 kts | 243° |
| 2026-04-24 13:01 | 39.87027 | -76.25452 | 33865 ft | 453 kts | 243° |
| 2026-04-24 13:01 | 39.83549 | -76.32230 | 33864 ft | 453 kts | 243° |
| 2026-04-24 13:02 | 39.80054 | -76.39030 | 33860 ft | 452 kts | 243° |
| 2026-04-24 13:02 | 39.76578 | -76.45773 | 33857 ft | 452 kts | 243° |
| 2026-04-24 13:03 | 39.73088 | -76.52532 | 33861 ft | 452 kts | 243° |
| 2026-04-24 13:03 | 39.69582 | -76.59309 | 33866 ft | 453 kts | 243° |
| 2026-04-24 13:04 | 39.66081 | -76.66059 | 33866 ft | 453 kts | 242° |
| 2026-04-24 13:04 | 39.62558 | -76.72841 | 33875 ft | 453 kts | 242° |
| 2026-04-24 13:05 | 39.59053 | -76.79575 | 33875 ft | 453 kts | 242° |
| 2026-04-24 13:05 | 39.55528 | -76.86324 | 33882 ft | 453 kts | 242° |
| 2026-04-24 13:06 | 39.51869 | -76.92999 | 33886 ft | 458 kts | 238° |
| 2026-04-24 13:06 | 39.47672 | -76.99195 | 33883 ft | 463 kts | 231° |
| 2026-04-24 13:07 | 39.42868 | -77.04839 | 33880 ft | 467 kts | 225° |
| 2026-04-24 13:07 | 39.37838 | -77.10115 | 33872 ft | 468 kts | 225° |
| 2026-04-24 13:08 | 39.32791 | -77.15404 | 33872 ft | 467 kts | 225° |
| 2026-04-24 13:08 | 39.27751 | -77.20684 | 33875 ft | 467 kts | 225° |
| 2026-04-24 13:09 | 39.20225 | -77.28553 | 33877 ft | 468 kts | 225° |
| 2026-04-24 13:09 | 39.15155 | -77.33842 | 33882 ft | 467 kts | 225° |
| 2026-04-24 13:10 | 39.10132 | -77.39074 | 33882 ft | 468 kts | 225° |
| 2026-04-24 13:10 | 39.05085 | -77.44321 | 33879 ft | 467 kts | 225° |
| 2026-04-24 13:11 | 39.00027 | -77.49568 | 33880 ft | 466 kts | 225° |
| 2026-04-24 13:11 | 38.94969 | -77.54803 | 33881 ft | 466 kts | 225° |
| 2026-04-24 13:12 | 38.89934 | -77.60008 | 33883 ft | 466 kts | 225° |
| 2026-04-24 13:12 | 38.84882 | -77.65219 | 33883 ft | 466 kts | 224° |
| 2026-04-24 13:13 | 38.79866 | -77.70385 | 33881 ft | 466 kts | 224° |
| 2026-04-24 13:13 | 38.74824 | -77.75567 | 33883 ft | 466 kts | 224° |
| 2026-04-24 13:14 | 38.69772 | -77.80748 | 33884 ft | 466 kts | 224° |
| 2026-04-24 13:14 | 38.64990 | -77.86223 | 33886 ft | 460 kts | 230° |
| 2026-04-24 13:15 | 38.60755 | -77.92272 | 33887 ft | 455 kts | 237° |
| 2026-04-24 13:15 | 38.56957 | -77.98692 | 33888 ft | 453 kts | 238° |
| 2026-04-24 13:16 | 38.53191 | -78.05120 | 33886 ft | 453 kts | 238° |
| 2026-04-24 13:16 | 38.49403 | -78.11556 | 33891 ft | 453 kts | 238° |
| 2026-04-24 13:17 | 38.45610 | -78.17981 | 33897 ft | 453 kts | 238° |
| 2026-04-24 13:17 | 38.41833 | -78.24372 | 33903 ft | 453 kts | 238° |
| 2026-04-24 13:18 | 38.38037 | -78.30776 | 33906 ft | 452 kts | 238° |
| 2026-04-24 13:18 | 38.34255 | -78.37144 | 33913 ft | 452 kts | 238° |
| 2026-04-24 13:19 | 38.30461 | -78.43520 | 33914 ft | 452 kts | 238° |
| 2026-04-24 13:19 | 38.26691 | -78.49843 | 33914 ft | 452 kts | 238° |
| 2026-04-24 13:20 | 38.22890 | -78.56206 | 33916 ft | 451 kts | 238° |
| 2026-04-24 13:20 | 38.19109 | -78.62524 | 33921 ft | 451 kts | 238° |
| 2026-04-24 13:21 | 38.15307 | -78.68866 | 33928 ft | 451 kts | 237° |
| 2026-04-24 13:21 | 38.11515 | -78.75178 | 33932 ft | 451 kts | 237° |
| 2026-04-24 13:22 | 38.07716 | -78.81489 | 33935 ft | 451 kts | 237° |
| 2026-04-24 13:22 | 38.03926 | -78.87772 | 33943 ft | 450 kts | 237° |
| 2026-04-24 13:23 | 38.00133 | -78.94048 | 33945 ft | 451 kts | 237° |
| 2026-04-24 13:23 | 37.96303 | -79.00375 | 33948 ft | 451 kts | 237° |
| 2026-04-24 13:24 | 37.92505 | -79.06637 | 33952 ft | 450 kts | 237° |
| 2026-04-24 13:24 | 37.88557 | -79.12759 | 33958 ft | 452 kts | 233° |
| 2026-04-24 13:25 | 37.84330 | -79.18655 | 33962 ft | 451 kts | 233° |
| 2026-04-24 13:25 | 37.80119 | -79.24509 | 33973 ft | 451 kts | 232° |
| 2026-04-24 13:26 | 37.75921 | -79.30340 | 33976 ft | 452 kts | 232° |
| 2026-04-24 13:26 | 37.71675 | -79.36225 | 33977 ft | 452 kts | 232° |
| 2026-04-24 13:27 | 37.67456 | -79.42062 | 33980 ft | 451 kts | 232° |
| 2026-04-24 13:27 | 37.63230 | -79.47898 | 33981 ft | 452 kts | 232° |
| 2026-04-24 13:28 | 37.59018 | -79.53706 | 33990 ft | 451 kts | 232° |
| 2026-04-24 13:28 | 37.54807 | -79.59502 | 33990 ft | 451 kts | 232° |
| 2026-04-24 13:29 | 37.50563 | -79.65334 | 33985 ft | 450 kts | 232° |
| 2026-04-24 13:29 | 37.46336 | -79.71128 | 33980 ft | 450 kts | 232° |
| 2026-04-24 13:30 | 37.42105 | -79.76920 | 33973 ft | 450 kts | 232° |
| 2026-04-24 13:30 | 37.37883 | -79.82690 | 33974 ft | 449 kts | 231° |
| 2026-04-24 13:31 | 37.33657 | -79.88455 | 33976 ft | 450 kts | 231° |
| 2026-04-24 13:31 | 37.29429 | -79.94209 | 33976 ft | 449 kts | 231° |
| 2026-04-24 13:32 | 37.25204 | -79.99954 | 33977 ft | 449 kts | 231° |
| 2026-04-24 13:32 | 37.20976 | -80.05691 | 33978 ft | 449 kts | 231° |
| 2026-04-24 13:33 | 37.16732 | -80.11437 | 33983 ft | 448 kts | 231° |
| 2026-04-24 13:33 | 37.12504 | -80.17154 | 33986 ft | 447 kts | 231° |
| 2026-04-24 13:34 | 37.08288 | -80.22845 | 33992 ft | 447 kts | 231° |
| 2026-04-24 13:34 | 37.04068 | -80.28528 | 34000 ft | 447 kts | 231° |
| 2026-04-24 13:35 | 36.99815 | -80.34180 | 33998 ft | 447 kts | 230° |
| 2026-04-24 13:35 | 36.95456 | -80.39748 | 33995 ft | 447 kts | 230° |
| 2026-04-24 13:36 | 36.91128 | -80.45261 | 33994 ft | 447 kts | 230° |
| 2026-04-24 13:36 | 36.86783 | -80.50802 | 34002 ft | 447 kts | 230° |
| 2026-04-24 13:37 | 36.82442 | -80.56332 | 34014 ft | 447 kts | 230° |
| 2026-04-24 13:37 | 36.78111 | -80.61843 | 34016 ft | 447 kts | 230° |
| 2026-04-24 13:38 | 36.73747 | -80.67387 | 34025 ft | 448 kts | 229° |
| 2026-04-24 13:38 | 36.69393 | -80.72910 | 34027 ft | 448 kts | 229° |
| 2026-04-24 13:39 | 36.65044 | -80.78417 | 34030 ft | 448 kts | 229° |
| 2026-04-24 13:39 | 36.60679 | -80.83933 | 34026 ft | 448 kts | 229° |
| 2026-04-24 13:40 | 36.56324 | -80.89428 | 34028 ft | 447 kts | 229° |
| 2026-04-24 13:40 | 36.51963 | -80.94919 | 34030 ft | 447 kts | 229° |
| 2026-04-24 13:41 | 36.47592 | -81.00415 | 34036 ft | 447 kts | 229° |
| 2026-04-24 13:41 | 36.43206 | -81.05922 | 34036 ft | 448 kts | 229° |
| 2026-04-24 13:42 | 36.38840 | -81.11396 | 34033 ft | 448 kts | 229° |
| 2026-04-24 13:42 | 36.34473 | -81.16859 | 34029 ft | 448 kts | 229° |
| 2026-04-24 13:43 | 36.30095 | -81.22327 | 34022 ft | 448 kts | 229° |
| 2026-04-24 13:43 | 36.25694 | -81.27825 | 34024 ft | 448 kts | 229° |
| 2026-04-24 13:44 | 36.21316 | -81.33285 | 34028 ft | 448 kts | 229° |
| 2026-04-24 13:44 | 36.16928 | -81.38750 | 34031 ft | 449 kts | 228° |
| 2026-04-24 13:45 | 36.12541 | -81.44202 | 34033 ft | 449 kts | 228° |
| 2026-04-24 13:45 | 36.08129 | -81.49675 | 34030 ft | 449 kts | 228° |
| 2026-04-24 13:46 | 36.03744 | -81.55106 | 34027 ft | 449 kts | 228° |
| 2026-04-24 13:46 | 35.99321 | -81.60576 | 34018 ft | 450 kts | 228° |
| 2026-04-24 13:47 | 35.94899 | -81.66035 | 34016 ft | 450 kts | 227° |
| 2026-04-24 13:47 | 35.90480 | -81.71480 | 34013 ft | 450 kts | 227° |
| 2026-04-24 13:48 | 35.86046 | -81.76938 | 34014 ft | 450 kts | 227° |
| 2026-04-24 13:48 | 35.81633 | -81.82358 | 34019 ft | 450 kts | 227° |
| 2026-04-24 13:49 | 35.77192 | -81.87773 | 34029 ft | 451 kts | 227° |
| 2026-04-24 13:49 | 35.72692 | -81.93156 | 34015 ft | 451 kts | 226° |
| 2026-04-24 13:50 | 35.68198 | -81.98520 | 34019 ft | 451 kts | 226° |
| 2026-04-24 13:50 | 35.63689 | -82.03902 | 34020 ft | 451 kts | 226° |
| 2026-04-24 13:51 | 35.59193 | -82.09261 | 34034 ft | 451 kts | 226° |
| 2026-04-24 13:51 | 35.54688 | -82.14622 | 34037 ft | 451 kts | 226° |
| 2026-04-24 13:52 | 35.50196 | -82.19961 | 34049 ft | 451 kts | 226° |
| 2026-04-24 13:52 | 35.45694 | -82.25304 | 34043 ft | 451 kts | 226° |
| 2026-04-24 13:53 | 35.41210 | -82.30649 | 34048 ft | 451 kts | 227° |
| 2026-04-24 13:53 | 35.36823 | -82.36113 | 34036 ft | 452 kts | 228° |
| 2026-04-24 13:54 | 35.32424 | -82.41603 | 34026 ft | 451 kts | 228° |
| 2026-04-24 13:54 | 35.28016 | -82.47076 | 34040 ft | 451 kts | 228° |
| 2026-04-24 13:55 | 35.23638 | -82.52496 | 34039 ft | 451 kts | 228° |
| 2026-04-24 13:55 | 35.19208 | -82.57969 | 34041 ft | 451 kts | 228° |
| 2026-04-24 13:56 | 35.14784 | -82.63401 | 34036 ft | 453 kts | 227° |
| 2026-04-24 13:56 | 35.10297 | -82.68728 | 34035 ft | 453 kts | 226° |
| 2026-04-24 13:57 | 35.05757 | -82.74098 | 34023 ft | 453 kts | 226° |
| 2026-04-24 13:57 | 35.01251 | -82.79434 | 34020 ft | 453 kts | 226° |
| 2026-04-24 13:58 | 34.96721 | -82.84792 | 34021 ft | 453 kts | 226° |
| 2026-04-24 13:58 | 34.92222 | -82.90089 | 34021 ft | 453 kts | 226° |
| 2026-04-24 13:59 | 34.87664 | -82.95364 | 33693 ft | 444 kts | 226° |
| 2026-04-24 13:59 | 34.85459 | -82.97911 | 32529 ft | 443 kts | 226° |
| 2026-04-24 13:59 | 34.83221 | -83.00504 | 30656 ft | 453 kts | 225° |
| 2026-04-24 14:00 | 34.80937 | -83.03147 | 29233 ft | 448 kts | 225° |
| 2026-04-24 14:00 | 34.78741 | -83.05677 | 28801 ft | 432 kts | 225° |
| 2026-04-24 14:00 | 34.76576 | -83.08173 | 28533 ft | 430 kts | 225° |
| 2026-04-24 14:00 | 34.74414 | -83.10665 | 28242 ft | 428 kts | 225° |
| 2026-04-24 14:01 | 34.72247 | -83.13161 | 27925 ft | 427 kts | 225° |
| 2026-04-24 14:01 | 34.70109 | -83.15623 | 27524 ft | 424 kts | 225° |
| 2026-04-24 14:01 | 34.67967 | -83.18088 | 27071 ft | 422 kts | 225° |
| 2026-04-24 14:01 | 34.65851 | -83.20519 | 26604 ft | 418 kts | 225° |
| 2026-04-24 14:02 | 34.63749 | -83.22934 | 26131 ft | 415 kts | 226° |
| 2026-04-24 14:02 | 34.61673 | -83.25318 | 25652 ft | 411 kts | 226° |
| 2026-04-24 14:02 | 34.59615 | -83.27678 | 25173 ft | 408 kts | 225° |
| 2026-04-24 14:02 | 34.57554 | -83.30041 | 24688 ft | 405 kts | 226° |
| 2026-04-24 14:03 | 34.55510 | -83.32383 | 24208 ft | 401 kts | 226° |
| 2026-04-24 14:03 | 34.53513 | -83.34676 | 23732 ft | 398 kts | 226° |
| 2026-04-24 14:03 | 34.51517 | -83.36973 | 23255 ft | 395 kts | 226° |
| 2026-04-24 14:03 | 34.49522 | -83.39267 | 22781 ft | 391 kts | 226° |
| 2026-04-24 14:04 | 34.47584 | -83.41496 | 22322 ft | 388 kts | 226° |
| 2026-04-24 14:04 | 34.45627 | -83.43745 | 21855 ft | 385 kts | 226° |
| 2026-04-24 14:04 | 34.43693 | -83.45965 | 21387 ft | 383 kts | 226° |
| 2026-04-24 14:04 | 34.41772 | -83.48168 | 20918 ft | 380 kts | 226° |
| 2026-04-24 14:05 | 34.39861 | -83.50359 | 20438 ft | 378 kts | 226° |
| 2026-04-24 14:05 | 34.37960 | -83.52535 | 19976 ft | 376 kts | 226° |
| 2026-04-24 14:05 | 34.36068 | -83.54700 | 19510 ft | 373 kts | 226° |
| 2026-04-24 14:05 | 34.34179 | -83.56860 | 19039 ft | 371 kts | 226° |
| 2026-04-24 14:06 | 34.32326 | -83.58978 | 18586 ft | 370 kts | 226° |
| 2026-04-24 14:06 | 34.30450 | -83.61122 | 18123 ft | 368 kts | 226° |
| 2026-04-24 14:06 | 34.28597 | -83.63228 | 17678 ft | 366 kts | 225° |
| 2026-04-24 14:06 | 34.26694 | -83.65285 | 17217 ft | 365 kts | 223° |
| 2026-04-24 14:07 | 34.24812 | -83.67274 | 16768 ft | 364 kts | 223° |
| 2026-04-24 14:07 | 34.22908 | -83.69284 | 16309 ft | 362 kts | 223° |
| 2026-04-24 14:07 | 34.21005 | -83.71299 | 15853 ft | 361 kts | 223° |
| 2026-04-24 14:07 | 34.19135 | -83.73282 | 15395 ft | 360 kts | 223° |
| 2026-04-24 14:08 | 34.17260 | -83.75272 | 14929 ft | 359 kts | 223° |
| 2026-04-24 14:08 | 34.15388 | -83.77261 | 14476 ft | 358 kts | 223° |
| 2026-04-24 14:08 | 34.13535 | -83.79224 | 14021 ft | 356 kts | 223° |
| 2026-04-24 14:08 | 34.11664 | -83.81209 | 13563 ft | 354 kts | 223° |
| 2026-04-24 14:09 | 34.09827 | -83.83156 | 13116 ft | 351 kts | 223° |
| 2026-04-24 14:09 | 34.08025 | -83.85081 | 12674 ft | 349 kts | 223° |
| 2026-04-24 14:09 | 34.06223 | -83.87021 | 12225 ft | 346 kts | 223° |
| 2026-04-24 14:09 | 34.04447 | -83.88931 | 11796 ft | 342 kts | 223° |
| 2026-04-24 14:10 | 34.02672 | -83.90836 | 11360 ft | 339 kts | 223° |
| 2026-04-24 14:10 | 34.00911 | -83.92727 | 10916 ft | 336 kts | 223° |
| 2026-04-24 14:10 | 33.99187 | -83.94575 | 10481 ft | 333 kts | 222° |
| 2026-04-24 14:10 | 33.97324 | -83.96204 | 10114 ft | 327 kts | 204° |
| 2026-04-24 14:11 | 33.95166 | -83.96796 | 9978 ft | 320 kts | 182° |
| 2026-04-24 14:11 | 33.92948 | -83.96711 | 9671 ft | 320 kts | 178° |
| 2026-04-24 14:11 | 33.88524 | -83.96475 | 8966 ft | 303 kts | 179° |
| 2026-04-24 14:12 | 33.86510 | -83.96380 | 8967 ft | 285 kts | 179° |
| 2026-04-24 14:12 | 33.84526 | -83.96293 | 8969 ft | 284 kts | 179° |
| 2026-04-24 14:12 | 33.82539 | -83.96210 | 8967 ft | 283 kts | 179° |
| 2026-04-24 14:12 | 33.80582 | -83.96127 | 8944 ft | 283 kts | 179° |
| 2026-04-24 14:13 | 33.78602 | -83.96045 | 8593 ft | 284 kts | 179° |
| 2026-04-24 14:13 | 33.76611 | -83.95979 | 8213 ft | 282 kts | 183° |
| 2026-04-24 14:13 | 33.74699 | -83.96316 | 7871 ft | 278 kts | 197° |
| 2026-04-24 14:13 | 33.72902 | -83.97098 | 7589 ft | 264 kts | 203° |
| 2026-04-24 14:14 | 33.71256 | -83.97927 | 7322 ft | 252 kts | 204° |
| 2026-04-24 14:14 | 33.69659 | -83.98740 | 7064 ft | 251 kts | 204° |
| 2026-04-24 14:14 | 33.66475 | -84.00376 | 6565 ft | 243 kts | 210° |
| 2026-04-24 14:15 | 33.65282 | -84.01739 | 6292 ft | 237 kts | 242° |
| 2026-04-24 14:15 | 33.64852 | -84.03581 | 5996 ft | 226 kts | 268° |
| 2026-04-24 14:15 | 33.64872 | -84.05391 | 5817 ft | 215 kts | 270° |
| 2026-04-24 14:15 | 33.64899 | -84.07191 | 5711 ft | 213 kts | 270° |
| 2026-04-24 14:16 | 33.64916 | -84.08955 | 5509 ft | 213 kts | 270° |
| 2026-04-24 14:16 | 33.64926 | -84.10728 | 5274 ft | 212 kts | 270° |
| 2026-04-24 14:16 | 33.64933 | -84.12485 | 5042 ft | 211 kts | 270° |
| 2026-04-24 14:17 | 33.64981 | -84.15988 | 4585 ft | 210 kts | 270° |
| 2026-04-24 14:17 | 33.64997 | -84.17743 | 4375 ft | 209 kts | 269° |
| 2026-04-24 14:17 | 33.64994 | -84.21223 | 4029 ft | 208 kts | 269° |
| 2026-04-24 14:18 | 33.64988 | -84.22953 | 3831 ft | 209 kts | 269° |
| 2026-04-24 14:18 | 33.64981 | -84.24706 | 3560 ft | 208 kts | 269° |
| 2026-04-24 14:18 | 33.64975 | -84.26403 | 3297 ft | 204 kts | 269° |
| 2026-04-24 14:18 | 33.64970 | -84.28081 | 3037 ft | 201 kts | 269° |
| 2026-04-24 14:19 | 33.64967 | -84.29782 | 2781 ft | 204 kts | 269° |
| 2026-04-24 14:19 | 33.64964 | -84.31477 | 2512 ft | 200 kts | 269° |
| 2026-04-24 14:19 | 33.64961 | -84.33122 | 2252 ft | 194 kts | 270° |
| 2026-04-24 14:19 | 33.64959 | -84.34679 | 2020 ft | 180 kts | 270° |
| 2026-04-24 14:20 | 33.64958 | -84.36125 | 1783 ft | 165 kts | 270° |
| 2026-04-24 14:20 | 33.64949 | -84.37440 | 1546 ft | 152 kts | 270° |
| 2026-04-24 14:20 | 33.64951 | -84.38678 | 1320 ft | 149 kts | 271° |
| 2026-04-24 14:20 | 33.64955 | -84.39948 | 1174 ft | 149 kts | 270° |
| 2026-04-24 14:21 | 33.64954 | -84.41166 | 997 ft | 137 kts | 270° |
| 2026-04-24 14:21 | 33.64954 | -84.42184 | 982 ft | 100 kts | 270° |
| 2026-04-24 14:21 | 33.64955 | -84.42803 | 994 ft | 54 kts | 270° |